createdAt,value
2023-04-30T08:12:41.494Z,7.10
2023-04-30T08:15:08.745Z,6.10
2023-04-30T08:17:36.377Z,5.13
2023-04-30T08:20:07.126Z,5.53
2023-04-30T08:22:34.210Z,4.45
2023-04-30T08:25:02.164Z,4.57
2023-04-30T08:27:32.079Z,4.95
2023-04-30T08:29:59.074Z,4.80
2023-04-30T08:32:26.262Z,4.63
2023-04-30T08:34:54.809Z,4.03
2023-04-30T08:37:22.170Z,4.97
2023-04-30T08:39:49.227Z,4.15
2023-04-30T08:42:19.307Z,3.75
2023-04-30T08:44:47.302Z,4.53
2023-04-30T08:47:15.037Z,3.67
2023-04-30T08:49:42.110Z,4.07
2023-04-30T08:52:09.106Z,3.97
2023-04-30T08:54:37.424Z,4.88
2023-04-30T08:57:04.941Z,4.15
2023-04-30T08:59:31.996Z,5.72
2023-04-30T09:02:02.193Z,4.40
2023-04-30T09:04:29.573Z,4.43
2023-04-30T09:06:59.284Z,4.13
2023-04-30T09:09:38.861Z,4.28
2023-04-30T09:12:19.288Z,4.22
2023-04-30T09:15:01.703Z,4.65
2023-04-30T09:17:28.929Z,4.78
2023-04-30T09:20:07.524Z,4.95
2023-04-30T09:22:36.951Z,4.70
2023-04-30T09:25:04.536Z,5.30
2023-04-30T09:27:31.564Z,4.72
2023-04-30T09:29:58.644Z,4.60
2023-04-30T09:32:25.961Z,4.40
2023-04-30T09:34:53.357Z,4.35
2023-04-30T09:37:20.427Z,4.18
2023-04-30T09:39:57.034Z,4.20
2023-04-30T09:42:24.194Z,4.43
2023-04-30T09:44:54.070Z,4.28
2023-04-30T09:47:21.463Z,3.88
2023-04-30T09:49:52.564Z,3.70
2023-04-30T09:52:20.657Z,4.40
2023-04-30T09:54:48.302Z,4.30
2023-04-30T09:57:16.648Z,4.13
2023-04-30T09:59:47.471Z,4.47
2023-04-30T10:02:16.819Z,5.40
2023-04-30T10:04:45.779Z,3.97
2023-04-30T10:07:18.155Z,4.05
2023-04-30T10:10:08.400Z,4.80
2023-04-30T10:12:51.352Z,5.20
2023-04-30T10:15:25.070Z,4.13
2023-04-30T10:18:01.485Z,4.35
2023-04-30T10:20:29.086Z,3.40
2023-04-30T10:22:56.993Z,3.60
2023-04-30T10:25:24.134Z,2.75
2023-04-30T10:27:52.035Z,3.38
2023-04-30T10:30:19.096Z,3.53
2023-04-30T10:32:58.189Z,3.20
2023-04-30T10:35:28.958Z,3.63
2023-04-30T10:38:05.742Z,2.50
2023-04-30T10:40:37.434Z,2.60
2023-04-30T10:43:04.450Z,3.05
2023-04-30T10:45:39.276Z,3.05
2023-04-30T10:48:07.461Z,2.60
2023-04-30T10:50:44.256Z,2.55
2023-04-30T10:53:16.284Z,2.60
2023-04-30T10:55:55.238Z,2.65
2023-04-30T10:58:34.549Z,2.60
2023-04-30T11:01:08.745Z,2.63
2023-04-30T11:03:37.416Z,2.47
2023-04-30T11:06:15.699Z,2.72
2023-04-30T11:08:47.209Z,3.40
2023-04-30T11:11:24.131Z,3.00
2023-04-30T11:14:12.429Z,2.28
2023-04-30T11:16:39.649Z,2.53
2023-04-30T11:19:11.695Z,2.40
2023-04-30T11:21:43.008Z,2.45
2023-04-30T11:24:09.913Z,2.75
2023-04-30T11:27:04.758Z,2.08
2023-04-30T11:29:32.513Z,2.10
2023-04-30T11:32:05.214Z,2.50
2023-04-30T11:34:32.315Z,2.40
2023-04-30T11:37:01.276Z,2.17
2023-04-30T11:39:29.989Z,2.20
2023-04-30T11:41:57.742Z,2.50
2023-04-30T11:44:27.618Z,2.75
2023-04-30T11:46:55.282Z,2.72
2023-04-30T11:49:22.400Z,3.08
2023-04-30T11:51:53.302Z,3.13
2023-04-30T11:54:20.466Z,3.10
2023-04-30T11:56:51.532Z,2.92
2023-04-30T11:59:20.269Z,3.65
2023-04-30T12:01:47.343Z,3.55
2023-04-30T12:04:14.488Z,2.78
2023-04-30T12:06:42.883Z,2.58
2023-04-30T12:09:11.903Z,2.63
2023-04-30T12:11:39.506Z,2.88
2023-04-30T12:14:07.932Z,2.47
2023-04-30T12:16:52.447Z,2.60
2023-04-30T12:19:21.827Z,2.58
2023-04-30T12:21:50.035Z,2.28
2023-04-30T12:24:18.892Z,2.65
2023-04-30T12:26:46.793Z,2.80
2023-04-30T12:29:16.954Z,2.63
2023-04-30T12:31:48.472Z,2.65
2023-04-30T12:34:19.135Z,2.97
2023-04-30T12:36:46.207Z,2.83
2023-04-30T12:39:16.377Z,2.53
2023-04-30T12:41:52.458Z,2.42
2023-04-30T12:44:21.435Z,2.47
2023-04-30T12:46:49.703Z,2.38
2023-04-30T12:49:30.085Z,2.67
2023-04-30T12:52:12.717Z,2.50
2023-04-30T12:54:42.261Z,2.40
2023-04-30T12:57:12.189Z,1.80
2023-04-30T12:59:52.972Z,1.65
2023-04-30T13:02:24.191Z,2.20
2023-04-30T13:04:51.965Z,2.30
2023-04-30T13:07:19.275Z,2.35
2023-04-30T13:09:46.381Z,2.38
2023-04-30T13:12:13.230Z,2.00
2023-04-30T13:14:40.105Z,2.40
2023-04-30T13:17:07.651Z,2.03
2023-04-30T13:19:35.425Z,2.20
2023-04-30T13:22:02.425Z,2.10
2023-04-30T13:24:34.328Z,2.00
2023-04-30T13:27:03.018Z,2.17
2023-04-30T13:29:30.224Z,2.50
2023-04-30T13:31:57.312Z,1.95
2023-04-30T13:34:24.526Z,2.28
2023-04-30T13:36:52.809Z,2.78
2023-04-30T13:39:20.166Z,2.55
2023-04-30T13:41:49.349Z,2.40
2023-04-30T13:44:17.336Z,2.88
2023-04-30T13:46:44.515Z,3.08
2023-04-30T13:49:11.516Z,2.50
2023-04-30T13:51:38.844Z,2.20
2023-04-30T13:54:05.837Z,2.05
2023-04-30T13:56:33.049Z,2.53
2023-04-30T13:58:59.973Z,2.00
2023-04-30T14:01:27.198Z,1.88
2023-04-30T14:03:54.345Z,1.70
2023-04-30T14:06:22.125Z,2.00
2023-04-30T14:08:49.249Z,2.40
2023-04-30T14:11:16.618Z,2.50
2023-04-30T14:13:46.386Z,2.00
2023-04-30T14:16:13.418Z,2.50
2023-04-30T14:18:40.406Z,2.60
2023-04-30T14:21:07.899Z,2.50
2023-04-30T14:23:38.964Z,2.10
2023-04-30T14:26:06.242Z,2.22
2023-04-30T14:28:33.320Z,2.05
2023-04-30T14:31:00.693Z,1.88
2023-04-30T14:33:27.616Z,2.10
2023-04-30T14:35:55.094Z,1.80
2023-04-30T14:38:22.189Z,2.17
2023-04-30T14:40:49.161Z,2.42
2023-04-30T14:43:16.039Z,2.13
2023-04-30T14:45:44.372Z,1.83
2023-04-30T14:48:12.038Z,2.30
2023-04-30T14:50:39.333Z,2.20
2023-04-30T14:53:06.543Z,2.38
2023-04-30T14:55:36.238Z,2.47
2023-04-30T14:58:07.302Z,1.98
2023-04-30T15:00:35.258Z,1.55
2023-04-30T15:03:02.370Z,3.65
2023-04-30T15:05:32.481Z,2.17
2023-04-30T15:07:59.501Z,2.38
2023-04-30T15:10:29.294Z,5.35
2023-04-30T15:12:56.305Z,3.17
2023-04-30T15:15:28.137Z,3.38
2023-04-30T15:17:57.355Z,2.30
2023-04-30T15:20:24.603Z,2.75
2023-04-30T15:22:51.826Z,2.10
2023-04-30T15:25:18.880Z,2.08
2023-04-30T15:27:46.023Z,1.95
2023-04-30T15:30:13.118Z,1.92
2023-04-30T15:32:40.706Z,2.50
2023-04-30T15:35:08.627Z,1.65
2023-04-30T15:37:35.894Z,1.75
2023-04-30T15:40:05.230Z,1.80
2023-04-30T15:42:32.258Z,1.90
2023-04-30T15:44:59.230Z,2.22
2023-04-30T15:47:27.286Z,3.83
2023-04-30T15:49:54.617Z,2.92
2023-04-30T15:52:22.129Z,1.77
2023-04-30T15:54:49.107Z,4.28
2023-04-30T15:57:16.323Z,2.70
2023-04-30T15:59:43.273Z,7.20
2023-04-30T16:02:10.332Z,4.25
2023-04-30T16:04:37.364Z,2.58
2023-04-30T16:07:05.024Z,2.35
2023-04-30T16:09:32.393Z,2.03
2023-04-30T16:11:59.515Z,1.90
2023-04-30T16:14:26.594Z,1.92
2023-04-30T16:16:53.847Z,1.98
2023-04-30T16:19:21.032Z,2.53
2023-04-30T16:21:48.145Z,2.35
2023-04-30T16:24:16.534Z,2.20
2023-04-30T16:26:43.836Z,2.42
2023-04-30T16:29:11.023Z,2.58
2023-04-30T16:31:38.068Z,3.45
2023-04-30T16:34:04.953Z,3.33
2023-04-30T16:36:33.390Z,2.85
2023-04-30T16:39:00.426Z,3.20
2023-04-30T16:41:27.344Z,6.32
2023-04-30T16:43:54.392Z,2.33
2023-04-30T16:46:21.454Z,2.70
2023-04-30T16:48:48.718Z,2.70
2023-04-30T16:51:15.637Z,2.17
2023-04-30T16:53:43.330Z,2.50
2023-04-30T16:56:10.323Z,2.72
2023-04-30T16:58:38.869Z,2.38
2023-04-30T17:01:05.972Z,2.17
2023-04-30T17:03:35.027Z,2.40
2023-04-30T17:06:02.253Z,3.22
2023-04-30T17:08:29.381Z,2.40
2023-04-30T17:10:56.329Z,2.25
2023-04-30T17:13:23.498Z,2.20
2023-04-30T17:15:50.435Z,2.28
2023-04-30T17:18:17.426Z,2.40
2023-04-30T17:20:46.705Z,2.75
2023-04-30T17:23:13.720Z,2.92
2023-04-30T17:25:40.764Z,3.80
2023-04-30T17:28:07.762Z,4.43
2023-04-30T17:30:35.549Z,4.07
2023-04-30T17:33:04.807Z,5.47
2023-04-30T17:35:32.152Z,5.43
2023-04-30T17:37:59.787Z,4.47
2023-04-30T17:40:26.762Z,4.85
2023-04-30T17:42:54.220Z,3.40
2023-04-30T17:45:21.774Z,3.63
2023-04-30T17:47:48.982Z,4.20
2023-04-30T17:50:16.104Z,4.35
2023-04-30T17:52:43.671Z,4.07
2023-04-30T17:55:11.629Z,4.32
2023-04-30T17:57:38.691Z,3.78
2023-04-30T18:00:07.372Z,5.03
2023-04-30T18:02:34.416Z,6.60
2023-04-30T18:05:01.450Z,7.72
2023-04-30T18:07:28.417Z,6.20
2023-04-30T18:09:55.602Z,5.80
2023-04-30T18:12:22.831Z,5.50
2023-04-30T18:14:49.783Z,4.60
2023-04-30T18:17:16.899Z,4.15
2023-04-30T18:19:45.108Z,9.40
2023-04-30T18:22:12.795Z,9.35
2023-04-30T18:24:40.016Z,9.02
2023-04-30T18:27:08.137Z,8.15
2023-04-30T18:29:35.679Z,8.23
2023-04-30T18:32:02.803Z,7.93
2023-04-30T18:34:29.752Z,6.68
2023-04-30T18:36:57.426Z,5.53
2023-04-30T18:39:24.441Z,4.20
2023-04-30T18:41:51.748Z,4.07
2023-04-30T18:44:19.975Z,2.97
2023-04-30T18:46:46.864Z,3.05
2023-04-30T18:49:14.184Z,3.55
2023-04-30T18:51:41.199Z,3.40
2023-04-30T18:54:08.173Z,3.55
2023-04-30T18:56:35.920Z,4.10
2023-04-30T18:59:02.915Z,3.95
2023-04-30T19:01:29.965Z,4.07
2023-04-30T19:03:57.017Z,4.57
2023-04-30T19:06:24.260Z,5.00
2023-04-30T19:08:51.415Z,4.57
2023-04-30T19:11:18.721Z,4.28
2023-04-30T19:13:45.941Z,4.32
2023-04-30T19:16:12.929Z,4.25
2023-04-30T19:18:39.993Z,4.18
2023-04-30T19:21:07.471Z,6.43
2023-04-30T19:23:35.870Z,9.25
2023-04-30T19:26:03.259Z,9.00
2023-04-30T19:28:30.242Z,8.68
2023-04-30T19:30:57.719Z,7.88
2023-04-30T19:33:25.648Z,7.50
2023-04-30T19:35:53.744Z,7.32
2023-04-30T19:38:22.214Z,7.70
2023-04-30T19:40:52.300Z,7.57
2023-04-30T19:43:20.779Z,8.43
2023-04-30T19:45:51.408Z,9.98
2023-04-30T19:48:18.564Z,10.03
2023-04-30T19:50:46.948Z,10.45
2023-04-30T19:53:15.514Z,10.85
2023-04-30T19:55:43.329Z,8.18
2023-04-30T19:58:10.414Z,8.93
2023-04-30T20:00:39.020Z,8.43
2023-04-30T20:03:06.041Z,8.55
2023-04-30T20:05:35.193Z,8.55
2023-04-30T20:08:06.894Z,8.45
2023-04-30T22:35:57.894Z,6.90
2023-04-30T22:38:27.746Z,6.68
2023-04-30T22:40:58.478Z,6.55
2023-04-30T22:43:31.327Z,6.83
2023-04-30T22:46:02.611Z,6.97
2023-04-30T22:48:34.519Z,7.72
2023-04-30T22:51:08.813Z,6.68
2023-04-30T22:53:39.036Z,8.43
2023-04-30T22:56:08.945Z,7.82
2023-04-30T22:58:38.554Z,10.55
2023-04-30T23:01:08.902Z,8.75
2023-04-30T23:03:36.212Z,8.35
2023-04-30T23:06:03.431Z,8.60
2023-04-30T23:08:30.676Z,7.70
2023-04-30T23:10:57.667Z,7.95
2023-04-30T23:13:24.863Z,6.50
2023-04-30T23:15:51.808Z,7.00
2023-04-30T23:18:23.457Z,6.80
2023-04-30T23:23:17.291Z,6.53
2023-04-30T23:25:44.292Z,6.60
2023-04-30T23:28:14.116Z,6.65
2023-04-30T23:30:41.284Z,7.47
2023-04-30T23:33:08.384Z,10.20
2023-04-30T23:35:38.884Z,9.15
2023-04-30T23:38:09.672Z,7.82
2023-04-30T23:40:38.481Z,7.67
2023-04-30T23:43:06.348Z,12.38
2023-04-30T23:45:33.484Z,13.23
2023-04-30T23:48:01.774Z,11.52
2023-04-30T23:50:31.505Z,8.38
2023-04-30T23:53:01.682Z,7.60
2023-04-30T23:55:28.905Z,6.47
2023-04-30T23:57:55.861Z,6.10
